sensor_id;sensor_type;location;lat;lon;timestamp;temperature;humidity
31003;DHT22;23051;-6.372;106.786;2023-06-19T00:00:21;27.30;85.00
31003;DHT22;23051;-6.372;106.786;2023-06-19T00:02:25;27.30;84.90
31003;DHT22;23051;-6.372;106.786;2023-06-19T00:04:32;27.30;84.90
31003;DHT22;23051;-6.372;106.786;2023-06-19T00:06:36;27.30;84.80
31003;DHT22;23051;-6.372;106.786;2023-06-19T00:08:37;27.30;84.90
31003;DHT22;23051;-6.372;106.786;2023-06-19T00:10:42;27.30;84.90
31003;DHT22;23051;-6.372;106.786;2023-06-19T00:12:48;27.30;84.80
31003;DHT22;23051;-6.372;106.786;2023-06-19T00:14:50;27.30;84.80
31003;DHT22;23051;-6.372;106.786;2023-06-19T00:16:51;27.40;84.80
31003;DHT22;23051;-6.372;106.786;2023-06-19T00:18:53;27.40;84.80
31003;DHT22;23051;-6.372;106.786;2023-06-19T00:21:02;27.40;84.80
31003;DHT22;23051;-6.372;106.786;2023-06-19T00:23:07;27.40;84.70
31003;DHT22;23051;-6.372;106.786;2023-06-19T00:25:12;27.40;84.60
31003;DHT22;23051;-6.372;106.786;2023-06-19T00:27:16;27.40;83.90
31003;DHT22;23051;-6.372;106.786;2023-06-19T00:29:17;27.40;84.60
31003;DHT22;23051;-6.372;106.786;2023-06-19T00:31:19;27.50;84.60
31003;DHT22;23051;-6.372;106.786;2023-06-19T00:33:24;27.50;84.60
31003;DHT22;23051;-6.372;106.786;2023-06-19T00:35:36;27.50;84.60
31003;DHT22;23051;-6.372;106.786;2023-06-19T00:40:46;27.60;84.40
31003;DHT22;23051;-6.372;106.786;2023-06-19T00:48:09;27.70;84.10
31003;DHT22;23051;-6.372;106.786;2023-06-19T00:52:30;27.90;84.00
31003;DHT22;23051;-6.372;106.786;2023-06-19T00:54:34;27.90;83.90
31003;DHT22;23051;-6.372;106.786;2023-06-19T00:59:02;27.90;83.80
31003;DHT22;23051;-6.372;106.786;2023-06-19T01:01:11;28.00;83.90
31003;DHT22;23051;-6.372;106.786;2023-06-19T01:03:15;28.00;83.90
31003;DHT22;23051;-6.372;106.786;2023-06-19T01:05:17;28.10;83.80
31003;DHT22;23051;-6.372;106.786;2023-06-19T01:09:50;28.10;83.60
31003;DHT22;23051;-6.372;106.786;2023-06-19T01:12:04;28.20;83.60
31003;DHT22;23051;-6.372;106.786;2023-06-19T01:14:18;28.20;83.60
31003;DHT22;23051;-6.372;106.786;2023-06-19T01:16:31;28.20;83.60
31003;DHT22;23051;-6.372;106.786;2023-06-19T01:18:36;28.20;83.60
31003;DHT22;23051;-6.372;106.786;2023-06-19T01:20:38;28.30;83.60
31003;DHT22;23051;-6.372;106.786;2023-06-19T01:22:47;28.30;83.60
31003;DHT22;23051;-6.372;106.786;2023-06-19T01:24:51;28.30;83.50
31003;DHT22;23051;-6.372;106.786;2023-06-19T01:26:58;28.30;83.40
31003;DHT22;23051;-6.372;106.786;2023-06-19T01:29:00;28.30;83.40
31003;DHT22;23051;-6.372;106.786;2023-06-19T01:31:02;28.30;83.50
31003;DHT22;23051;-6.372;106.786;2023-06-19T01:35:13;28.30;83.50
31003;DHT22;23051;-6.372;106.786;2023-06-19T01:37:28;28.40;83.50
31003;DHT22;23051;-6.372;106.786;2023-06-19T01:39:33;28.40;83.50
31003;DHT22;23051;-6.372;106.786;2023-06-19T01:41:37;28.50;83.40
31003;DHT22;23051;-6.372;106.786;2023-06-19T01:43:43;28.50;83.20
31003;DHT22;23051;-6.372;106.786;2023-06-19T01:45:48;28.60;83.20
31003;DHT22;23051;-6.372;106.786;2023-06-19T01:47:49;28.60;83.10
31003;DHT22;23051;-6.372;106.786;2023-06-19T01:50:02;28.70;83.00
31003;DHT22;23051;-6.372;106.786;2023-06-19T01:52:09;28.70;82.90
31003;DHT22;23051;-6.372;106.786;2023-06-19T01:54:14;28.80;82.90
31003;DHT22;23051;-6.372;106.786;2023-06-19T01:56:16;28.80;82.90
31003;DHT22;23051;-6.372;106.786;2023-06-19T01:58:17;28.80;82.80
31003;DHT22;23051;-6.372;106.786;2023-06-19T02:00:24;28.90;82.90
31003;DHT22;23051;-6.372;106.786;2023-06-19T02:02:26;28.90;82.90
31003;DHT22;23051;-6.372;106.786;2023-06-19T02:04:28;28.90;82.70
31003;DHT22;23051;-6.372;106.786;2023-06-19T02:06:32;28.90;82.70
31003;DHT22;23051;-6.372;106.786;2023-06-19T02:08:38;29.00;82.70
31003;DHT22;23051;-6.372;106.786;2023-06-19T02:10:50;29.00;82.60
31003;DHT22;23051;-6.372;106.786;2023-06-19T02:12:57;29.00;82.50
31003;DHT22;23051;-6.372;106.786;2023-06-19T02:15:09;29.10;82.50
31003;DHT22;23051;-6.372;106.786;2023-06-19T02:17:15;29.10;82.40
31003;DHT22;23051;-6.372;106.786;2023-06-19T02:19:30;29.20;82.40
31003;DHT22;23051;-6.372;106.786;2023-06-19T02:24:15;29.20;82.20
31003;DHT22;23051;-6.372;106.786;2023-06-19T02:28:55;29.30;82.10
31003;DHT22;23051;-6.372;106.786;2023-06-19T02:30:59;29.40;82.10
31003;DHT22;23051;-6.372;106.786;2023-06-19T02:33:04;29.40;82.10
31003;DHT22;23051;-6.372;106.786;2023-06-19T02:35:12;29.40;82.00
31003;DHT22;23051;-6.372;106.786;2023-06-19T02:37:18;29.50;81.90
31003;DHT22;23051;-6.372;106.786;2023-06-19T02:42:10;29.70;81.70
31003;DHT22;23051;-6.372;106.786;2023-06-19T02:44:15;29.80;81.60
31003;DHT22;23051;-6.372;106.786;2023-06-19T02:46:17;29.90;81.50
31003;DHT22;23051;-6.372;106.786;2023-06-19T02:48:18;29.90;81.30
31003;DHT22;23051;-6.372;106.786;2023-06-19T02:50:20;30.00;81.20
31003;DHT22;23051;-6.372;106.786;2023-06-19T02:52:25;30.00;81.20
31003;DHT22;23051;-6.372;106.786;2023-06-19T02:54:31;30.00;81.20
31003;DHT22;23051;-6.372;106.786;2023-06-19T02:58:36;29.90;81.30
31003;DHT22;23051;-6.372;106.786;2023-06-19T03:00:41;30.00;81.40
31003;DHT22;23051;-6.372;106.786;2023-06-19T03:02:43;30.00;81.30
31003;DHT22;23051;-6.372;106.786;2023-06-19T03:04:49;30.10;81.20
31003;DHT22;23051;-6.372;106.786;2023-06-19T03:06:53;30.20;81.20
31003;DHT22;23051;-6.372;106.786;2023-06-19T03:08:55;30.20;81.10
31003;DHT22;23051;-6.372;106.786;2023-06-19T03:11:00;30.30;81.00
31003;DHT22;23051;-6.372;106.786;2023-06-19T03:13:04;30.30;80.80
31003;DHT22;23051;-6.372;106.786;2023-06-19T03:15:22;30.40;80.80
31003;DHT22;23051;-6.372;106.786;2023-06-19T03:17:24;30.50;80.70
31003;DHT22;23051;-6.372;106.786;2023-06-19T03:19:31;30.40;80.60
31003;DHT22;23051;-6.372;106.786;2023-06-19T03:21:37;30.40;81.60
31003;DHT22;23051;-6.372;106.786;2023-06-19T03:23:42;30.40;80.90
31003;DHT22;23051;-6.372;106.786;2023-06-19T03:25:43;30.40;81.00
31003;DHT22;23051;-6.372;106.786;2023-06-19T03:27:47;30.30;81.00
31003;DHT22;23051;-6.372;106.786;2023-06-19T03:29:49;30.40;80.90
31003;DHT22;23051;-6.372;106.786;2023-06-19T03:31:50;30.50;80.90
31003;DHT22;23051;-6.372;106.786;2023-06-19T03:34:04;30.50;80.70
31003;DHT22;23051;-6.372;106.786;2023-06-19T03:36:06;30.60;80.70
31003;DHT22;23051;-6.372;106.786;2023-06-19T03:38:11;30.60;80.60
31003;DHT22;23051;-6.372;106.786;2023-06-19T03:40:13;30.70;80.60
31003;DHT22;23051;-6.372;106.786;2023-06-19T03:42:18;30.70;80.40
31003;DHT22;23051;-6.372;106.786;2023-06-19T03:44:22;30.80;80.30
31003;DHT22;23051;-6.372;106.786;2023-06-19T03:46:26;30.90;80.30
31003;DHT22;23051;-6.372;106.786;2023-06-19T03:48:30;30.90;80.10
31003;DHT22;23051;-6.372;106.786;2023-06-19T03:50:58;30.90;80.10
31003;DHT22;23051;-6.372;106.786;2023-06-19T03:53:05;31.00;80.20
31003;DHT22;23051;-6.372;106.786;2023-06-19T03:55:09;31.00;80.20
31003;DHT22;23051;-6.372;106.786;2023-06-19T03:57:13;31.00;80.00
31003;DHT22;23051;-6.372;106.786;2023-06-19T04:01:31;31.20;79.90
31003;DHT22;23051;-6.372;106.786;2023-06-19T04:03:37;31.30;79.70
31003;DHT22;23051;-6.372;106.786;2023-06-19T04:05:39;31.30;79.50
31003;DHT22;23051;-6.372;106.786;2023-06-19T04:07:50;31.30;79.60
31003;DHT22;23051;-6.372;106.786;2023-06-19T04:09:54;31.30;79.60
31003;DHT22;23051;-6.372;106.786;2023-06-19T04:11:57;31.30;79.60
31003;DHT22;23051;-6.372;106.786;2023-06-19T04:13:59;31.30;79.60
31003;DHT22;23051;-6.372;106.786;2023-06-19T04:16:03;31.30;80.20
31003;DHT22;23051;-6.372;106.786;2023-06-19T04:18:05;31.30;79.80
31003;DHT22;23051;-6.372;106.786;2023-06-19T04:20:07;31.30;79.80
31003;DHT22;23051;-6.372;106.786;2023-06-19T04:22:14;31.30;79.90
31003;DHT22;23051;-6.372;106.786;2023-06-19T04:24:24;31.30;79.90
31003;DHT22;23051;-6.372;106.786;2023-06-19T04:26:28;31.30;79.90
31003;DHT22;23051;-6.372;106.786;2023-06-19T04:28:33;31.30;80.60
31003;DHT22;23051;-6.372;106.786;2023-06-19T04:30:34;31.30;79.80
31003;DHT22;23051;-6.372;106.786;2023-06-19T04:32:36;31.40;79.70
31003;DHT22;23051;-6.372;106.786;2023-06-19T04:34:44;31.40;79.60
31003;DHT22;23051;-6.372;106.786;2023-06-19T04:37:17;31.50;79.50
31003;DHT22;23051;-6.372;106.786;2023-06-19T04:39:34;31.50;79.40
31003;DHT22;23051;-6.372;106.786;2023-06-19T04:41:39;31.60;79.30
31003;DHT22;23051;-6.372;106.786;2023-06-19T04:43:43;31.70;79.20
31003;DHT22;23051;-6.372;106.786;2023-06-19T04:45:45;31.70;79.10
31003;DHT22;23051;-6.372;106.786;2023-06-19T04:47:49;31.80;79.10
31003;DHT22;23051;-6.372;106.786;2023-06-19T04:50:04;31.80;78.90
31003;DHT22;23051;-6.372;106.786;2023-06-19T04:52:08;31.90;78.80
31003;DHT22;23051;-6.372;106.786;2023-06-19T04:54:15;31.90;78.80
31003;DHT22;23051;-6.372;106.786;2023-06-19T04:56:17;31.90;78.70
31003;DHT22;23051;-6.372;106.786;2023-06-19T04:58:27;32.00;78.80
31003;DHT22;23051;-6.372;106.786;2023-06-19T05:01:02;32.10;78.60
31003;DHT22;23051;-6.372;106.786;2023-06-19T05:03:13;32.10;78.40
31003;DHT22;23051;-6.372;106.786;2023-06-19T05:05:18;32.10;78.40
31003;DHT22;23051;-6.372;106.786;2023-06-19T05:07:20;32.10;78.40
31003;DHT22;23051;-6.372;106.786;2023-06-19T05:09:36;32.10;78.40
31003;DHT22;23051;-6.372;106.786;2023-06-19T05:12:05;32.10;78.60
31003;DHT22;23051;-6.372;106.786;2023-06-19T05:14:35;32.10;78.60
31003;DHT22;23051;-6.372;106.786;2023-06-19T05:18:55;32.30;78.20
31003;DHT22;23051;-6.372;106.786;2023-06-19T05:21:00;32.40;78.00
31003;DHT22;23051;-6.372;106.786;2023-06-19T05:23:27;32.60;77.70
31003;DHT22;23051;-6.372;106.786;2023-06-19T05:25:29;32.80;77.30
31003;DHT22;23051;-6.372;106.786;2023-06-19T05:27:30;32.90;77.00
31003;DHT22;23051;-6.372;106.786;2023-06-19T05:29:32;33.00;76.90
31003;DHT22;23051;-6.372;106.786;2023-06-19T05:31:37;33.10;76.70
31003;DHT22;23051;-6.372;106.786;2023-06-19T05:34:17;33.30;76.50
31003;DHT22;23051;-6.372;106.786;2023-06-19T05:36:27;33.40;76.20
31003;DHT22;23051;-6.372;106.786;2023-06-19T05:41:09;33.70;75.70
31003;DHT22;23051;-6.372;106.786;2023-06-19T05:43:11;33.80;75.50
31003;DHT22;23051;-6.372;106.786;2023-06-19T05:45:32;33.90;75.30
31003;DHT22;23051;-6.372;106.786;2023-06-19T05:47:36;34.00;75.20
31003;DHT22;23051;-6.372;106.786;2023-06-19T05:49:50;34.10;75.00
31003;DHT22;23051;-6.372;106.786;2023-06-19T05:51:55;34.20;74.80
31003;DHT22;23051;-6.372;106.786;2023-06-19T05:54:02;34.30;74.70
31003;DHT22;23051;-6.372;106.786;2023-06-19T05:56:15;34.40;74.70
31003;DHT22;23051;-6.372;106.786;2023-06-19T05:58:26;34.40;74.60
31003;DHT22;23051;-6.372;106.786;2023-06-19T06:00:37;34.40;74.60
31003;DHT22;23051;-6.372;106.786;2023-06-19T06:02:44;34.50;74.40
31003;DHT22;23051;-6.372;106.786;2023-06-19T06:05:01;34.70;74.30
31003;DHT22;23051;-6.372;106.786;2023-06-19T06:07:11;34.70;74.20
31003;DHT22;23051;-6.372;106.786;2023-06-19T06:09:15;34.60;74.20
31003;DHT22;23051;-6.372;106.786;2023-06-19T06:11:32;34.50;74.50
31003;DHT22;23051;-6.372;106.786;2023-06-19T06:13:38;34.40;74.90
31003;DHT22;23051;-6.372;106.786;2023-06-19T06:15:42;34.20;75.20
31003;DHT22;23051;-6.372;106.786;2023-06-19T06:17:44;34.10;75.50
31003;DHT22;23051;-6.372;106.786;2023-06-19T06:19:45;34.00;75.80
31003;DHT22;23051;-6.372;106.786;2023-06-19T06:21:49;33.80;76.20
31003;DHT22;23051;-6.372;106.786;2023-06-19T06:23:53;33.40;76.70
31003;DHT22;23051;-6.372;106.786;2023-06-19T06:25:55;33.10;77.60
31003;DHT22;23051;-6.372;106.786;2023-06-19T06:28:05;32.70;78.30
31003;DHT22;23051;-6.372;106.786;2023-06-19T06:30:06;32.50;79.10
31003;DHT22;23051;-6.372;106.786;2023-06-19T06:32:10;32.10;79.80
31003;DHT22;23051;-6.372;106.786;2023-06-19T06:34:12;31.80;80.40
31003;DHT22;23051;-6.372;106.786;2023-06-19T06:36:16;31.60;81.00
31003;DHT22;23051;-6.372;106.786;2023-06-19T06:38:22;31.30;81.50
31003;DHT22;23051;-6.372;106.786;2023-06-19T06:40:26;31.00;82.00
31003;DHT22;23051;-6.372;106.786;2023-06-19T06:42:31;30.70;82.70
31003;DHT22;23051;-6.372;106.786;2023-06-19T06:44:35;30.30;83.40
31003;DHT22;23051;-6.372;106.786;2023-06-19T06:46:36;29.80;84.30
31003;DHT22;23051;-6.372;106.786;2023-06-19T06:48:38;29.40;85.50
31003;DHT22;23051;-6.372;106.786;2023-06-19T06:50:40;28.90;86.50
31003;DHT22;23051;-6.372;106.786;2023-06-19T06:52:42;28.30;87.80
31003;DHT22;23051;-6.372;106.786;2023-06-19T06:54:46;27.70;89.10
31003;DHT22;23051;-6.372;106.786;2023-06-19T06:56:49;27.40;90.40
31003;DHT22;23051;-6.372;106.786;2023-06-19T06:58:53;27.20;90.30
31003;DHT22;23051;-6.372;106.786;2023-06-19T07:00:56;27.00;90.30
31003;DHT22;23051;-6.372;106.786;2023-06-19T07:02:57;26.90;90.40
31003;DHT22;23051;-6.372;106.786;2023-06-19T07:04:59;26.90;90.50
31003;DHT22;23051;-6.372;106.786;2023-06-19T07:07:01;27.00;90.30
31003;DHT22;23051;-6.372;106.786;2023-06-19T07:09:04;27.10;90.20
31003;DHT22;23051;-6.372;106.786;2023-06-19T07:11:06;27.20;90.00
31003;DHT22;23051;-6.372;106.786;2023-06-19T07:13:08;27.30;89.70
31003;DHT22;23051;-6.372;106.786;2023-06-19T07:15:15;27.40;89.40
31003;DHT22;23051;-6.372;106.786;2023-06-19T07:17:17;27.50;89.00
31003;DHT22;23051;-6.372;106.786;2023-06-19T07:19:21;27.60;88.80
31003;DHT22;23051;-6.372;106.786;2023-06-19T07:21:22;27.60;88.50
31003;DHT22;23051;-6.372;106.786;2023-06-19T07:23:28;27.80;88.30
31003;DHT22;23051;-6.372;106.786;2023-06-19T07:25:32;27.80;87.90
31003;DHT22;23051;-6.372;106.786;2023-06-19T07:27:35;27.90;87.70
31003;DHT22;23051;-6.372;106.786;2023-06-19T07:29:43;28.00;87.50
31003;DHT22;23051;-6.372;106.786;2023-06-19T07:31:45;28.10;87.20
31003;DHT22;23051;-6.372;106.786;2023-06-19T07:33:46;28.20;87.00
31003;DHT22;23051;-6.372;106.786;2023-06-19T07:35:48;28.20;86.80
31003;DHT22;23051;-6.372;106.786;2023-06-19T07:37:50;28.20;86.70
31003;DHT22;23051;-6.372;106.786;2023-06-19T07:39:54;28.20;86.70
31003;DHT22;23051;-6.372;106.786;2023-06-19T07:42:05;28.20;86.60
31003;DHT22;23051;-6.372;106.786;2023-06-19T07:46:12;28.30;86.70
31003;DHT22;23051;-6.372;106.786;2023-06-19T07:48:19;28.30;86.70
31003;DHT22;23051;-6.372;106.786;2023-06-19T07:50:26;28.30;86.70
31003;DHT22;23051;-6.372;106.786;2023-06-19T07:52:28;28.20;86.70
31003;DHT22;23051;-6.372;106.786;2023-06-19T07:54:34;28.10;86.90
31003;DHT22;23051;-6.372;106.786;2023-06-19T07:56:35;28.00;87.10
31003;DHT22;23051;-6.372;106.786;2023-06-19T07:58:36;27.90;87.20
31003;DHT22;23051;-6.372;106.786;2023-06-19T08:00:38;27.80;87.40
31003;DHT22;23051;-6.372;106.786;2023-06-19T08:02:40;27.80;87.60
31003;DHT22;23051;-6.372;106.786;2023-06-19T08:04:42;27.70;87.60
31003;DHT22;23051;-6.372;106.786;2023-06-19T08:06:43;27.70;87.60
31003;DHT22;23051;-6.372;106.786;2023-06-19T08:08:45;27.70;88.40
31003;DHT22;23051;-6.372;106.786;2023-06-19T08:10:49;27.70;87.60
31003;DHT22;23051;-6.372;106.786;2023-06-19T08:12:54;27.70;87.60
31003;DHT22;23051;-6.372;106.786;2023-06-19T08:14:55;27.70;87.60
31003;DHT22;23051;-6.372;106.786;2023-06-19T08:17:00;27.70;87.40
31003;DHT22;23051;-6.372;106.786;2023-06-19T08:19:01;27.80;87.50
31003;DHT22;23051;-6.372;106.786;2023-06-19T08:21:03;27.80;87.40
31003;DHT22;23051;-6.372;106.786;2023-06-19T08:23:04;27.90;87.40
31003;DHT22;23051;-6.372;106.786;2023-06-19T08:25:06;27.80;87.20
31003;DHT22;23051;-6.372;106.786;2023-06-19T08:27:08;27.90;87.30
31003;DHT22;23051;-6.372;106.786;2023-06-19T08:29:12;27.90;87.20
31003;DHT22;23051;-6.372;106.786;2023-06-19T08:31:16;27.90;87.20
31003;DHT22;23051;-6.372;106.786;2023-06-19T08:33:17;27.90;87.10
31003;DHT22;23051;-6.372;106.786;2023-06-19T08:35:19;27.90;87.10
31003;DHT22;23051;-6.372;106.786;2023-06-19T08:37:25;27.90;87.20
31003;DHT22;23051;-6.372;106.786;2023-06-19T08:39:29;27.90;87.20
31003;DHT22;23051;-6.372;106.786;2023-06-19T08:41:31;27.90;87.10
31003;DHT22;23051;-6.372;106.786;2023-06-19T08:43:32;27.90;87.10
31003;DHT22;23051;-6.372;106.786;2023-06-19T08:45:34;27.90;87.10
31003;DHT22;23051;-6.372;106.786;2023-06-19T08:49:37;28.00;87.20
31003;DHT22;23051;-6.372;106.786;2023-06-19T08:51:39;27.90;87.20
31003;DHT22;23051;-6.372;106.786;2023-06-19T08:53:49;27.80;87.10
31003;DHT22;23051;-6.372;106.786;2023-06-19T08:55:54;27.90;87.20
31003;DHT22;23051;-6.372;106.786;2023-06-19T08:58:01;27.90;87.20
31003;DHT22;23051;-6.372;106.786;2023-06-19T09:00:03;27.80;87.20
31003;DHT22;23051;-6.372;106.786;2023-06-19T09:02:09;27.90;87.30
31003;DHT22;23051;-6.372;106.786;2023-06-19T09:04:13;27.90;87.30
31003;DHT22;23051;-6.372;106.786;2023-06-19T09:06:16;27.80;87.20
31003;DHT22;23051;-6.372;106.786;2023-06-19T09:08:18;27.80;87.30
31003;DHT22;23051;-6.372;106.786;2023-06-19T09:10:23;27.80;87.20
31003;DHT22;23051;-6.372;106.786;2023-06-19T09:12:27;27.80;87.20
31003;DHT22;23051;-6.372;106.786;2023-06-19T09:14:43;27.80;87.30
31003;DHT22;23051;-6.372;106.786;2023-06-19T09:16:44;27.80;87.30
31003;DHT22;23051;-6.372;106.786;2023-06-19T09:18:49;27.70;87.20
31003;DHT22;23051;-6.372;106.786;2023-06-19T09:20:55;27.80;87.30
31003;DHT22;23051;-6.372;106.786;2023-06-19T09:22:59;27.70;87.20
31003;DHT22;23051;-6.372;106.786;2023-06-19T09:25:03;27.70;87.30
31003;DHT22;23051;-6.372;106.786;2023-06-19T09:29:13;27.70;87.40
31003;DHT22;23051;-6.372;106.786;2023-06-19T09:31:19;27.70;87.40
31003;DHT22;23051;-6.372;106.786;2023-06-19T09:33:21;27.70;87.40
31003;DHT22;23051;-6.372;106.786;2023-06-19T09:35:22;27.60;87.50
31003;DHT22;23051;-6.372;106.786;2023-06-19T09:37:28;27.50;87.60
31003;DHT22;23051;-6.372;106.786;2023-06-19T09:39:31;27.40;87.70
31003;DHT22;23051;-6.372;106.786;2023-06-19T09:41:37;27.40;88.00
31003;DHT22;23051;-6.372;106.786;2023-06-19T09:43:43;27.30;88.00
31003;DHT22;23051;-6.372;106.786;2023-06-19T09:45:48;27.30;88.10
31003;DHT22;23051;-6.372;106.786;2023-06-19T09:47:52;27.30;88.10
31003;DHT22;23051;-6.372;106.786;2023-06-19T09:49:55;27.30;88.00
31003;DHT22;23051;-6.372;106.786;2023-06-19T09:51:57;27.40;88.10
31003;DHT22;23051;-6.372;106.786;2023-06-19T09:54:03;27.40;88.00
31003;DHT22;23051;-6.372;106.786;2023-06-19T09:56:07;27.40;87.90
31003;DHT22;23051;-6.372;106.786;2023-06-19T09:58:13;27.40;87.90
31003;DHT22;23051;-6.372;106.786;2023-06-19T10:00:20;27.40;87.80
31003;DHT22;23051;-6.372;106.786;2023-06-19T10:02:29;27.40;87.80
31003;DHT22;23051;-6.372;106.786;2023-06-19T10:04:30;27.40;87.80
31003;DHT22;23051;-6.372;106.786;2023-06-19T10:06:47;27.40;87.90
31003;DHT22;23051;-6.372;106.786;2023-06-19T10:08:51;27.40;87.90
31003;DHT22;23051;-6.372;106.786;2023-06-19T10:10:56;27.40;87.80
31003;DHT22;23051;-6.372;106.786;2023-06-19T10:13:12;27.40;87.80
31003;DHT22;23051;-6.372;106.786;2023-06-19T10:17:19;27.40;87.80
31003;DHT22;23051;-6.372;106.786;2023-06-19T10:19:23;27.40;87.80
31003;DHT22;23051;-6.372;106.786;2023-06-19T10:21:27;27.40;87.80
31003;DHT22;23051;-6.372;106.786;2023-06-19T10:23:28;27.40;87.80
31003;DHT22;23051;-6.372;106.786;2023-06-19T10:25:34;27.40;87.70
31003;DHT22;23051;-6.372;106.786;2023-06-19T10:27:38;27.40;87.70
31003;DHT22;23051;-6.372;106.786;2023-06-19T10:29:54;27.40;87.70
31003;DHT22;23051;-6.372;106.786;2023-06-19T10:32:04;27.40;87.70
31003;DHT22;23051;-6.372;106.786;2023-06-19T10:34:06;27.40;87.70
31003;DHT22;23051;-6.372;106.786;2023-06-19T10:36:15;27.40;87.70
31003;DHT22;23051;-6.372;106.786;2023-06-19T10:38:17;27.40;87.70
31003;DHT22;23051;-6.372;106.786;2023-06-19T10:40:18;27.30;87.60
31003;DHT22;23051;-6.372;106.786;2023-06-19T10:42:20;27.40;87.80
31003;DHT22;23051;-6.372;106.786;2023-06-19T10:44:24;27.30;87.80
31003;DHT22;23051;-6.372;106.786;2023-06-19T10:46:31;27.30;87.70
31003;DHT22;23051;-6.372;106.786;2023-06-19T10:48:32;27.50;87.50
31003;DHT22;23051;-6.372;106.786;2023-06-19T10:50:38;27.70;87.10
31003;DHT22;23051;-6.372;106.786;2023-06-19T10:54:47;28.10;86.20
31003;DHT22;23051;-6.372;106.786;2023-06-19T11:01:00;28.50;85.10
31003;DHT22;23051;-6.372;106.786;2023-06-19T11:03:04;28.60;84.90
31003;DHT22;23051;-6.372;106.786;2023-06-19T11:05:06;28.70;84.90
31003;DHT22;23051;-6.372;106.786;2023-06-19T11:07:11;28.70;84.60
31003;DHT22;23051;-6.372;106.786;2023-06-19T11:09:16;28.80;84.50
31003;DHT22;23051;-6.372;106.786;2023-06-19T11:11:20;28.90;84.50
31003;DHT22;23051;-6.372;106.786;2023-06-19T11:13:26;28.80;84.40
31003;DHT22;23051;-6.372;106.786;2023-06-19T11:15:31;28.70;84.70
31003;DHT22;23051;-6.372;106.786;2023-06-19T11:17:33;28.50;85.00
31003;DHT22;23051;-6.372;106.786;2023-06-19T11:19:35;28.30;85.50
31003;DHT22;23051;-6.372;106.786;2023-06-19T11:21:46;28.10;85.80
31003;DHT22;23051;-6.372;106.786;2023-06-19T11:23:50;28.10;86.30
31003;DHT22;23051;-6.372;106.786;2023-06-19T11:26:02;28.00;86.50
31003;DHT22;23051;-6.372;106.786;2023-06-19T11:28:11;27.80;86.70
31003;DHT22;23051;-6.372;106.786;2023-06-19T11:30:16;27.70;87.00
31003;DHT22;23051;-6.372;106.786;2023-06-19T11:32:17;27.70;87.10
31003;DHT22;23051;-6.372;106.786;2023-06-19T11:34:33;27.70;87.20
31003;DHT22;23051;-6.372;106.786;2023-06-19T11:36:38;27.50;87.20
31003;DHT22;23051;-6.372;106.786;2023-06-19T11:38:43;27.50;87.50
31003;DHT22;23051;-6.372;106.786;2023-06-19T11:40:48;27.50;87.40
31003;DHT22;23051;-6.372;106.786;2023-06-19T11:42:53;27.40;87.40
31003;DHT22;23051;-6.372;106.786;2023-06-19T11:44:59;27.40;87.50
31003;DHT22;23051;-6.372;106.786;2023-06-19T11:47:01;27.40;87.60
31003;DHT22;23051;-6.372;106.786;2023-06-19T11:49:11;27.40;87.50
31003;DHT22;23051;-6.372;106.786;2023-06-19T11:51:13;27.40;87.40
31003;DHT22;23051;-6.372;106.786;2023-06-19T11:53:15;27.40;87.40
31003;DHT22;23051;-6.372;106.786;2023-06-19T11:55:19;27.40;87.40
31003;DHT22;23051;-6.372;106.786;2023-06-19T11:57:23;27.50;87.30
31003;DHT22;23051;-6.372;106.786;2023-06-19T11:59:27;27.50;87.30
31003;DHT22;23051;-6.372;106.786;2023-06-19T12:01:35;27.50;87.30
31003;DHT22;23051;-6.372;106.786;2023-06-19T12:03:50;27.40;87.30
31003;DHT22;23051;-6.372;106.786;2023-06-19T12:05:53;27.40;87.20
31003;DHT22;23051;-6.372;106.786;2023-06-19T12:08:05;27.40;87.30
31003;DHT22;23051;-6.372;106.786;2023-06-19T12:10:14;27.40;87.50
31003;DHT22;23051;-6.372;106.786;2023-06-19T12:12:19;27.40;87.60
31003;DHT22;23051;-6.372;106.786;2023-06-19T12:14:42;27.40;87.60
31003;DHT22;23051;-6.372;106.786;2023-06-19T12:16:54;27.30;87.40
31003;DHT22;23051;-6.372;106.786;2023-06-19T12:19:04;27.30;87.60
31003;DHT22;23051;-6.372;106.786;2023-06-19T12:21:18;27.40;87.50
31003;DHT22;23051;-6.372;106.786;2023-06-19T12:23:35;27.40;87.40
31003;DHT22;23051;-6.372;106.786;2023-06-19T12:25:48;27.40;87.50
31003;DHT22;23051;-6.372;106.786;2023-06-19T12:27:59;27.40;87.50
31003;DHT22;23051;-6.372;106.786;2023-06-19T12:30:06;27.40;87.30
31003;DHT22;23051;-6.372;106.786;2023-06-19T12:32:51;27.40;87.20
31003;DHT22;23051;-6.372;106.786;2023-06-19T12:34:57;27.40;87.20
31003;DHT22;23051;-6.372;106.786;2023-06-19T12:37:08;27.40;87.20
31003;DHT22;23051;-6.372;106.786;2023-06-19T12:39:10;27.40;87.20
31003;DHT22;23051;-6.372;106.786;2023-06-19T12:41:17;27.40;87.20
31003;DHT22;23051;-6.372;106.786;2023-06-19T12:43:18;27.40;87.20
31003;DHT22;23051;-6.372;106.786;2023-06-19T12:45:26;27.40;87.20
31003;DHT22;23051;-6.372;106.786;2023-06-19T12:47:28;27.40;87.10
31003;DHT22;23051;-6.372;106.786;2023-06-19T12:49:30;27.40;87.10
31003;DHT22;23051;-6.372;106.786;2023-06-19T12:51:35;27.40;87.20
31003;DHT22;23051;-6.372;106.786;2023-06-19T12:53:39;27.40;87.20
31003;DHT22;23051;-6.372;106.786;2023-06-19T12:55:41;27.40;87.20
31003;DHT22;23051;-6.372;106.786;2023-06-19T12:57:46;27.40;87.30
31003;DHT22;23051;-6.372;106.786;2023-06-19T12:59:51;27.30;87.40
31003;DHT22;23051;-6.372;106.786;2023-06-19T13:01:56;27.40;87.40
31003;DHT22;23051;-6.372;106.786;2023-06-19T13:03:58;27.30;87.40
31003;DHT22;23051;-6.372;106.786;2023-06-19T13:06:02;27.20;87.40
31003;DHT22;23051;-6.372;106.786;2023-06-19T13:08:04;27.30;87.70
31003;DHT22;23051;-6.372;106.786;2023-06-19T13:12:08;27.20;87.80
31003;DHT22;23051;-6.372;106.786;2023-06-19T13:14:10;27.10;87.80
31003;DHT22;23051;-6.372;106.786;2023-06-19T13:16:12;27.20;88.00
31003;DHT22;23051;-6.372;106.786;2023-06-19T13:18:17;27.20;87.90
31003;DHT22;23051;-6.372;106.786;2023-06-19T13:20:24;27.20;88.40
31003;DHT22;23051;-6.372;106.786;2023-06-19T13:22:32;27.20;88.00
31003;DHT22;23051;-6.372;106.786;2023-06-19T13:24:41;27.10;87.90
31003;DHT22;23051;-6.372;106.786;2023-06-19T13:26:47;27.20;87.90
31003;DHT22;23051;-6.372;106.786;2023-06-19T13:28:49;27.10;87.90
31003;DHT22;23051;-6.372;106.786;2023-06-19T13:30:53;27.10;87.90
31003;DHT22;23051;-6.372;106.786;2023-06-19T13:32:57;27.10;87.90
31003;DHT22;23051;-6.372;106.786;2023-06-19T13:35:10;27.10;87.90
31003;DHT22;23051;-6.372;106.786;2023-06-19T13:37:11;27.10;88.30
31003;DHT22;23051;-6.372;106.786;2023-06-19T13:39:13;27.10;88.00
31003;DHT22;23051;-6.372;106.786;2023-06-19T13:41:22;27.10;87.90